sensor_id;sensor_type;location;lat;lon;timestamp;P1;durP1;ratioP1;P2;durP2;ratioP2
6834;SDS011;3455;42.150;24.734;2023-02-24T00:00:02;14.37;;;8.90;;
6834;SDS011;3455;42.150;24.734;2023-02-24T00:02:55;12.57;;;8.43;;
6834;SDS011;3455;42.150;24.734;2023-02-24T00:05:23;13.17;;;9.33;;
6834;SDS011;3455;42.150;24.734;2023-02-24T00:07:51;13.47;;;7.57;;
6834;SDS011;3455;42.150;24.734;2023-02-24T00:10:18;21.77;;;9.30;;
6834;SDS011;3455;42.150;24.734;2023-02-24T00:12:45;12.20;;;8.60;;
6834;SDS011;3455;42.150;24.734;2023-02-24T00:15:13;13.77;;;8.93;;
6834;SDS011;3455;42.150;24.734;2023-02-24T00:17:40;19.17;;;10.00;;
6834;SDS011;3455;42.150;24.734;2023-02-24T00:20:09;12.87;;;8.93;;
6834;SDS011;3455;42.150;24.734;2023-02-24T00:22:37;19.07;;;11.47;;
6834;SDS011;3455;42.150;24.734;2023-02-24T00:25:05;12.80;;;9.57;;
6834;SDS011;3455;42.150;24.734;2023-02-24T00:27:33;22.07;;;9.43;;
6834;SDS011;3455;42.150;24.734;2023-02-24T00:30:00;15.73;;;11.97;;
6834;SDS011;3455;42.150;24.734;2023-02-24T00:32:29;22.87;;;10.13;;
6834;SDS011;3455;42.150;24.734;2023-02-24T00:34:56;18.17;;;10.60;;
6834;SDS011;3455;42.150;24.734;2023-02-24T00:37:22;12.30;;;9.13;;
6834;SDS011;3455;42.150;24.734;2023-02-24T00:39:49;13.33;;;9.80;;
6834;SDS011;3455;42.150;24.734;2023-02-24T00:42:23;22.03;;;10.30;;
6834;SDS011;3455;42.150;24.734;2023-02-24T00:44:50;16.70;;;12.03;;
6834;SDS011;3455;42.150;24.734;2023-02-24T00:47:18;14.80;;;10.07;;
6834;SDS011;3455;42.150;24.734;2023-02-24T00:49:46;14.67;;;9.27;;
6834;SDS011;3455;42.150;24.734;2023-02-24T00:52:15;13.40;;;10.03;;
6834;SDS011;3455;42.150;24.734;2023-02-24T00:54:43;12.03;;;9.60;;
6834;SDS011;3455;42.150;24.734;2023-02-24T00:57:11;15.37;;;8.93;;
6834;SDS011;3455;42.150;24.734;2023-02-24T00:59:39;17.83;;;9.30;;
6834;SDS011;3455;42.150;24.734;2023-02-24T01:02:06;12.90;;;9.10;;
6834;SDS011;3455;42.150;24.734;2023-02-24T01:04:35;17.33;;;10.73;;
6834;SDS011;3455;42.150;24.734;2023-02-24T01:07:02;17.97;;;9.77;;
6834;SDS011;3455;42.150;24.734;2023-02-24T01:09:35;13.47;;;10.17;;
6834;SDS011;3455;42.150;24.734;2023-02-24T01:12:05;17.77;;;9.40;;
6834;SDS011;3455;42.150;24.734;2023-02-24T01:14:52;25.80;;;10.47;;
6834;SDS011;3455;42.150;24.734;2023-02-24T01:17:19;11.83;;;9.17;;
6834;SDS011;3455;42.150;24.734;2023-02-24T01:19:47;11.00;;;9.83;;
6834;SDS011;3455;42.150;24.734;2023-02-24T01:22:14;13.90;;;10.60;;
6834;SDS011;3455;42.150;24.734;2023-02-24T01:24:43;21.67;;;9.73;;
6834;SDS011;3455;42.150;24.734;2023-02-24T01:27:10;14.03;;;9.97;;
6834;SDS011;3455;42.150;24.734;2023-02-24T01:29:38;18.50;;;10.53;;
6834;SDS011;3455;42.150;24.734;2023-02-24T01:32:06;16.33;;;9.87;;
6834;SDS011;3455;42.150;24.734;2023-02-24T01:34:36;13.80;;;9.77;;
6834;SDS011;3455;42.150;24.734;2023-02-24T01:37:06;13.77;;;9.53;;
6834;SDS011;3455;42.150;24.734;2023-02-24T01:39:33;14.20;;;8.30;;
6834;SDS011;3455;42.150;24.734;2023-02-24T01:42:00;12.03;;;7.87;;
6834;SDS011;3455;42.150;24.734;2023-02-24T01:47:38;13.77;;;7.93;;
6834;SDS011;3455;42.150;24.734;2023-02-24T01:50:06;18.30;;;7.33;;
6834;SDS011;3455;42.150;24.734;2023-02-24T01:52:37;11.80;;;6.47;;
6834;SDS011;3455;42.150;24.734;2023-02-24T01:55:06;11.17;;;7.00;;
6834;SDS011;3455;42.150;24.734;2023-02-24T01:57:37;8.77;;;6.93;;
6834;SDS011;3455;42.150;24.734;2023-02-24T02:00:06;6.63;;;5.77;;
6834;SDS011;3455;42.150;24.734;2023-02-24T02:02:37;15.17;;;6.73;;
6834;SDS011;3455;42.150;24.734;2023-02-24T02:05:08;7.63;;;5.57;;
6834;SDS011;3455;42.150;24.734;2023-02-24T02:07:36;6.17;;;5.20;;
6834;SDS011;3455;42.150;24.734;2023-02-24T02:10:05;7.97;;;5.30;;
6834;SDS011;3455;42.150;24.734;2023-02-24T02:12:34;15.63;;;5.90;;
6834;SDS011;3455;42.150;24.734;2023-02-24T02:15:08;13.30;;;6.60;;
6834;SDS011;3455;42.150;24.734;2023-02-24T02:17:38;11.10;;;5.23;;
6834;SDS011;3455;42.150;24.734;2023-02-24T02:26:38;11.30;;;6.37;;
6834;SDS011;3455;42.150;24.734;2023-02-24T02:29:30;6.77;;;6.10;;
6834;SDS011;3455;42.150;24.734;2023-02-24T02:32:16;12.20;;;7.20;;
6834;SDS011;3455;42.150;24.734;2023-02-24T02:35:01;11.90;;;6.90;;
6834;SDS011;3455;42.150;24.734;2023-02-24T02:37:35;8.47;;;5.57;;
6834;SDS011;3455;42.150;24.734;2023-02-24T02:40:12;16.67;;;6.40;;
6834;SDS011;3455;42.150;24.734;2023-02-24T02:42:46;14.53;;;6.63;;
6834;SDS011;3455;42.150;24.734;2023-02-24T02:45:18;13.33;;;5.23;;
6834;SDS011;3455;42.150;24.734;2023-02-24T02:47:49;12.20;;;6.40;;
6834;SDS011;3455;42.150;24.734;2023-02-24T02:50:22;9.50;;;6.03;;
6834;SDS011;3455;42.150;24.734;2023-02-24T02:52:54;11.33;;;6.30;;
6834;SDS011;3455;42.150;24.734;2023-02-24T02:55:25;10.67;;;5.93;;
6834;SDS011;3455;42.150;24.734;2023-02-24T02:58:00;14.30;;;6.40;;
6834;SDS011;3455;42.150;24.734;2023-02-24T03:00:34;11.93;;;6.07;;
6834;SDS011;3455;42.150;24.734;2023-02-24T03:03:06;10.40;;;5.83;;
6834;SDS011;3455;42.150;24.734;2023-02-24T03:05:41;14.63;;;7.37;;
6834;SDS011;3455;42.150;24.734;2023-02-24T03:08:12;10.00;;;6.07;;
6834;SDS011;3455;42.150;24.734;2023-02-24T03:10:43;20.03;;;6.80;;
6834;SDS011;3455;42.150;24.734;2023-02-24T03:13:15;10.77;;;6.43;;
6834;SDS011;3455;42.150;24.734;2023-02-24T03:15:43;15.07;;;5.93;;
6834;SDS011;3455;42.150;24.734;2023-02-24T03:18:13;8.53;;;5.57;;
6834;SDS011;3455;42.150;24.734;2023-02-24T03:20:46;11.33;;;5.73;;
6834;SDS011;3455;42.150;24.734;2023-02-24T03:23:17;6.57;;;5.20;;
6834;SDS011;3455;42.150;24.734;2023-02-24T03:25:50;13.60;;;6.67;;
6834;SDS011;3455;42.150;24.734;2023-02-24T03:28:24;8.03;;;6.37;;
6834;SDS011;3455;42.150;24.734;2023-02-24T03:30:58;7.83;;;5.60;;
6834;SDS011;3455;42.150;24.734;2023-02-24T03:33:33;9.17;;;7.00;;
6834;SDS011;3455;42.150;24.734;2023-02-24T03:36:06;11.70;;;6.00;;
6834;SDS011;3455;42.150;24.734;2023-02-24T03:38:33;10.90;;;6.47;;
6834;SDS011;3455;42.150;24.734;2023-02-24T03:41:02;9.20;;;6.07;;
6834;SDS011;3455;42.150;24.734;2023-02-24T03:43:35;11.67;;;5.83;;
6834;SDS011;3455;42.150;24.734;2023-02-24T03:46:06;11.80;;;6.93;;
6834;SDS011;3455;42.150;24.734;2023-02-24T03:48:33;9.07;;;6.50;;
6834;SDS011;3455;42.150;24.734;2023-02-24T03:51:12;8.43;;;5.57;;
6834;SDS011;3455;42.150;24.734;2023-02-24T03:53:44;6.83;;;5.40;;
6834;SDS011;3455;42.150;24.734;2023-02-24T03:56:25;9.87;;;5.20;;
6834;SDS011;3455;42.150;24.734;2023-02-24T03:59:00;9.93;;;5.37;;
6834;SDS011;3455;42.150;24.734;2023-02-24T04:01:40;18.87;;;5.60;;
6834;SDS011;3455;42.150;24.734;2023-02-24T04:04:16;10.07;;;5.73;;
6834;SDS011;3455;42.150;24.734;2023-02-24T04:06:53;11.93;;;6.47;;
6834;SDS011;3455;42.150;24.734;2023-02-24T04:09:25;14.47;;;5.70;;
6834;SDS011;3455;42.150;24.734;2023-02-24T04:12:01;12.93;;;5.77;;
6834;SDS011;3455;42.150;24.734;2023-02-24T04:14:38;9.07;;;5.93;;
6834;SDS011;3455;42.150;24.734;2023-02-24T04:17:12;13.00;;;6.10;;
6834;SDS011;3455;42.150;24.734;2023-02-24T04:19:44;8.33;;;5.80;;
6834;SDS011;3455;42.150;24.734;2023-02-24T04:22:15;11.07;;;5.23;;
6834;SDS011;3455;42.150;24.734;2023-02-24T04:24:49;16.23;;;5.63;;
6834;SDS011;3455;42.150;24.734;2023-02-24T04:27:19;10.77;;;5.90;;
6834;SDS011;3455;42.150;24.734;2023-02-24T04:29:49;8.23;;;5.10;;
6834;SDS011;3455;42.150;24.734;2023-02-24T04:32:20;11.47;;;6.00;;
6834;SDS011;3455;42.150;24.734;2023-02-24T04:34:50;9.73;;;5.60;;
6834;SDS011;3455;42.150;24.734;2023-02-24T04:37:19;10.17;;;6.80;;
6834;SDS011;3455;42.150;24.734;2023-02-24T04:39:47;13.50;;;6.13;;
6834;SDS011;3455;42.150;24.734;2023-02-24T04:42:15;8.63;;;6.00;;
6834;SDS011;3455;42.150;24.734;2023-02-24T04:44:44;12.97;;;5.87;;
6834;SDS011;3455;42.150;24.734;2023-02-24T04:47:12;14.57;;;6.27;;
6834;SDS011;3455;42.150;24.734;2023-02-24T04:49:38;6.83;;;5.40;;
6834;SDS011;3455;42.150;24.734;2023-02-24T04:52:06;7.23;;;6.00;;
6834;SDS011;3455;42.150;24.734;2023-02-24T04:54:34;12.13;;;5.77;;
6834;SDS011;3455;42.150;24.734;2023-02-24T04:57:01;13.63;;;6.23;;
6834;SDS011;3455;42.150;24.734;2023-02-24T04:59:31;15.07;;;6.50;;
6834;SDS011;3455;42.150;24.734;2023-02-24T05:01:57;18.23;;;5.90;;
6834;SDS011;3455;42.150;24.734;2023-02-24T05:04:25;9.13;;;5.90;;
6834;SDS011;3455;42.150;24.734;2023-02-24T05:06:55;7.67;;;6.13;;
6834;SDS011;3455;42.150;24.734;2023-02-24T05:09:22;14.90;;;5.93;;
6834;SDS011;3455;42.150;24.734;2023-02-24T05:11:55;16.17;;;6.30;;
6834;SDS011;3455;42.150;24.734;2023-02-24T05:14:24;10.87;;;5.70;;
6834;SDS011;3455;42.150;24.734;2023-02-24T05:16:51;17.27;;;6.67;;
6834;SDS011;3455;42.150;24.734;2023-02-24T05:19:24;14.33;;;6.07;;
6834;SDS011;3455;42.150;24.734;2023-02-24T05:22:08;8.40;;;5.97;;
6834;SDS011;3455;42.150;24.734;2023-02-24T05:24:38;13.70;;;6.27;;
6834;SDS011;3455;42.150;24.734;2023-02-24T05:27:07;6.93;;;5.63;;
6834;SDS011;3455;42.150;24.734;2023-02-24T05:29:34;10.70;;;5.00;;
6834;SDS011;3455;42.150;24.734;2023-02-24T05:32:02;9.70;;;6.43;;
6834;SDS011;3455;42.150;24.734;2023-02-24T05:34:30;12.23;;;6.57;;
6834;SDS011;3455;42.150;24.734;2023-02-24T05:36:58;14.33;;;6.47;;
6834;SDS011;3455;42.150;24.734;2023-02-24T05:39:28;12.17;;;6.40;;
6834;SDS011;3455;42.150;24.734;2023-02-24T05:41:55;11.57;;;5.83;;
6834;SDS011;3455;42.150;24.734;2023-02-24T05:44:24;14.57;;;5.70;;
6834;SDS011;3455;42.150;24.734;2023-02-24T05:46:52;13.03;;;6.00;;
6834;SDS011;3455;42.150;24.734;2023-02-24T05:49:23;8.43;;;6.37;;
6834;SDS011;3455;42.150;24.734;2023-02-24T05:51:54;20.63;;;7.87;;
6834;SDS011;3455;42.150;24.734;2023-02-24T05:54:22;19.63;;;7.60;;
6834;SDS011;3455;42.150;24.734;2023-02-24T05:56:53;12.10;;;6.87;;
6834;SDS011;3455;42.150;24.734;2023-02-24T05:59:23;12.90;;;7.23;;
6834;SDS011;3455;42.150;24.734;2023-02-24T06:01:49;17.80;;;12.10;;
6834;SDS011;3455;42.150;24.734;2023-02-24T06:04:17;17.07;;;10.27;;
6834;SDS011;3455;42.150;24.734;2023-02-24T06:07:04;11.73;;;7.20;;
6834;SDS011;3455;42.150;24.734;2023-02-24T06:09:31;14.40;;;5.27;;
6834;SDS011;3455;42.150;24.734;2023-02-24T06:12:04;16.37;;;7.27;;
6834;SDS011;3455;42.150;24.734;2023-02-24T06:14:33;14.97;;;6.70;;
6834;SDS011;3455;42.150;24.734;2023-02-24T06:17:00;9.97;;;5.53;;
6834;SDS011;3455;42.150;24.734;2023-02-24T06:19:27;7.63;;;4.67;;
6834;SDS011;3455;42.150;24.734;2023-02-24T06:21:56;17.73;;;5.87;;
6834;SDS011;3455;42.150;24.734;2023-02-24T06:24:25;12.87;;;4.93;;
6834;SDS011;3455;42.150;24.734;2023-02-24T06:26:53;8.83;;;5.10;;
6834;SDS011;3455;42.150;24.734;2023-02-24T06:29:27;10.47;;;5.83;;
6834;SDS011;3455;42.150;24.734;2023-02-24T06:31:56;11.83;;;6.60;;
6834;SDS011;3455;42.150;24.734;2023-02-24T06:34:23;10.10;;;5.73;;
6834;SDS011;3455;42.150;24.734;2023-02-24T06:36:50;12.00;;;5.97;;
6834;SDS011;3455;42.150;24.734;2023-02-24T06:39:17;8.33;;;5.20;;
6834;SDS011;3455;42.150;24.734;2023-02-24T06:41:44;11.03;;;5.37;;
6834;SDS011;3455;42.150;24.734;2023-02-24T06:44:15;12.70;;;5.57;;
6834;SDS011;3455;42.150;24.734;2023-02-24T06:46:43;17.63;;;6.47;;
6834;SDS011;3455;42.150;24.734;2023-02-24T06:49:11;12.67;;;6.40;;
6834;SDS011;3455;42.150;24.734;2023-02-24T06:51:40;9.53;;;5.90;;
6834;SDS011;3455;42.150;24.734;2023-02-24T06:54:07;13.60;;;6.27;;
6834;SDS011;3455;42.150;24.734;2023-02-24T06:56:34;13.70;;;6.63;;
6834;SDS011;3455;42.150;24.734;2023-02-24T06:59:03;20.97;;;7.40;;
6834;SDS011;3455;42.150;24.734;2023-02-24T07:01:31;14.53;;;7.30;;
6834;SDS011;3455;42.150;24.734;2023-02-24T07:04:00;25.13;;;8.77;;
6834;SDS011;3455;42.150;24.734;2023-02-24T07:06:44;22.27;;;7.80;;
6834;SDS011;3455;42.150;24.734;2023-02-24T07:09:16;11.73;;;8.07;;
6834;SDS011;3455;42.150;24.734;2023-02-24T07:11:45;16.03;;;8.07;;
6834;SDS011;3455;42.150;24.734;2023-02-24T07:14:16;22.30;;;9.67;;
6834;SDS011;3455;42.150;24.734;2023-02-24T07:16:44;20.77;;;9.37;;
6834;SDS011;3455;42.150;24.734;2023-02-24T07:19:11;30.17;;;9.83;;
6834;SDS011;3455;42.150;24.734;2023-02-24T07:21:40;19.33;;;10.63;;
6834;SDS011;3455;42.150;24.734;2023-02-24T07:24:15;20.20;;;7.93;;
6834;SDS011;3455;42.150;24.734;2023-02-24T07:26:53;18.13;;;9.17;;
6834;SDS011;3455;42.150;24.734;2023-02-24T07:29:22;18.00;;;9.70;;
6834;SDS011;3455;42.150;24.734;2023-02-24T07:31:49;27.40;;;10.70;;
6834;SDS011;3455;42.150;24.734;2023-02-24T07:34:20;17.33;;;10.27;;
6834;SDS011;3455;42.150;24.734;2023-02-24T07:36:48;18.57;;;8.83;;
6834;SDS011;3455;42.150;24.734;2023-02-24T07:39:17;17.37;;;9.07;;
6834;SDS011;3455;42.150;24.734;2023-02-24T07:41:47;19.53;;;8.70;;
6834;SDS011;3455;42.150;24.734;2023-02-24T07:44:14;18.77;;;9.17;;
6834;SDS011;3455;42.150;24.734;2023-02-24T07:46:42;16.27;;;9.17;;
6834;SDS011;3455;42.150;24.734;2023-02-24T07:49:10;20.37;;;9.40;;
6834;SDS011;3455;42.150;24.734;2023-02-24T07:51:39;12.03;;;8.80;;
6834;SDS011;3455;42.150;24.734;2023-02-24T07:54:06;21.83;;;11.07;;
6834;SDS011;3455;42.150;24.734;2023-02-24T07:56:37;18.20;;;9.47;;
6834;SDS011;3455;42.150;24.734;2023-02-24T07:59:10;19.30;;;10.33;;
6834;SDS011;3455;42.150;24.734;2023-02-24T08:01:40;21.73;;;12.13;;
6834;SDS011;3455;42.150;24.734;2023-02-24T08:04:14;21.60;;;13.03;;
6834;SDS011;3455;42.150;24.734;2023-02-24T08:06:43;29.73;;;13.40;;
6834;SDS011;3455;42.150;24.734;2023-02-24T08:09:12;27.20;;;13.30;;
6834;SDS011;3455;42.150;24.734;2023-02-24T08:11:46;27.87;;;13.80;;
6834;SDS011;3455;42.150;24.734;2023-02-24T08:14:16;28.43;;;13.60;;
6834;SDS011;3455;42.150;24.734;2023-02-24T08:16:44;30.93;;;13.63;;
6834;SDS011;3455;42.150;24.734;2023-02-24T08:19:13;30.10;;;13.97;;
6834;SDS011;3455;42.150;24.734;2023-02-24T08:21:45;28.73;;;14.37;;
6834;SDS011;3455;42.150;24.734;2023-02-24T08:24:15;33.70;;;13.63;;
6834;SDS011;3455;42.150;24.734;2023-02-24T08:26:43;33.33;;;13.83;;
6834;SDS011;3455;42.150;24.734;2023-02-24T08:29:27;32.27;;;13.83;;
6834;SDS011;3455;42.150;24.734;2023-02-24T08:31:55;29.37;;;14.40;;
6834;SDS011;3455;42.150;24.734;2023-02-24T08:34:22;24.33;;;14.37;;
6834;SDS011;3455;42.150;24.734;2023-02-24T08:36:51;32.33;;;16.30;;
6834;SDS011;3455;42.150;24.734;2023-02-24T08:39:20;34.13;;;16.13;;
6834;SDS011;3455;42.150;24.734;2023-02-24T08:41:48;31.47;;;16.33;;
6834;SDS011;3455;42.150;24.734;2023-02-24T08:44:18;45.60;;;18.03;;
6834;SDS011;3455;42.150;24.734;2023-02-24T08:46:45;39.53;;;17.63;;
6834;SDS011;3455;42.150;24.734;2023-02-24T08:49:14;27.33;;;15.63;;
6834;SDS011;3455;42.150;24.734;2023-02-24T08:51:42;34.87;;;17.77;;
6834;SDS011;3455;42.150;24.734;2023-02-24T08:54:12;34.50;;;17.73;;
6834;SDS011;3455;42.150;24.734;2023-02-24T08:56:41;35.63;;;17.07;;
6834;SDS011;3455;42.150;24.734;2023-02-24T08:59:15;33.80;;;17.93;;
6834;SDS011;3455;42.150;24.734;2023-02-24T09:01:57;42.23;;;17.03;;
6834;SDS011;3455;42.150;24.734;2023-02-24T09:04:38;43.77;;;17.07;;
6834;SDS011;3455;42.150;24.734;2023-02-24T09:07:11;43.13;;;18.93;;
6834;SDS011;3455;42.150;24.734;2023-02-24T09:09:40;49.50;;;19.47;;
6834;SDS011;3455;42.150;24.734;2023-02-24T09:12:08;53.30;;;18.93;;
6834;SDS011;3455;42.150;24.734;2023-02-24T09:14:47;39.20;;;18.33;;
6834;SDS011;3455;42.150;24.734;2023-02-24T09:17:15;31.67;;;17.27;;
6834;SDS011;3455;42.150;24.734;2023-02-24T09:19:45;33.80;;;17.60;;
6834;SDS011;3455;42.150;24.734;2023-02-24T09:22:28;38.17;;;18.33;;
6834;SDS011;3455;42.150;24.734;2023-02-24T09:24:57;37.70;;;18.80;;
6834;SDS011;3455;42.150;24.734;2023-02-24T09:27:46;33.10;;;16.83;;
6834;SDS011;3455;42.150;24.734;2023-02-24T09:30:18;35.10;;;17.10;;
6834;SDS011;3455;42.150;24.734;2023-02-24T09:33:04;37.47;;;18.03;;
6834;SDS011;3455;42.150;24.734;2023-02-24T09:35:42;34.40;;;17.37;;
6834;SDS011;3455;42.150;24.734;2023-02-24T09:38:13;35.90;;;17.57;;
6834;SDS011;3455;42.150;24.734;2023-02-24T09:40:43;36.33;;;17.83;;
6834;SDS011;3455;42.150;24.734;2023-02-24T09:43:15;33.93;;;17.70;;
6834;SDS011;3455;42.150;24.734;2023-02-24T09:45:48;32.93;;;18.20;;
6834;SDS011;3455;42.150;24.734;2023-02-24T09:48:23;33.23;;;17.77;;
6834;SDS011;3455;42.150;24.734;2023-02-24T09:50:57;28.57;;;17.70;;
6834;SDS011;3455;42.150;24.734;2023-02-24T09:53:28;25.63;;;14.97;;
6834;SDS011;3455;42.150;24.734;2023-02-24T09:56:04;29.43;;;16.23;;
6834;SDS011;3455;42.150;24.734;2023-02-24T09:58:41;28.23;;;16.07;;
6834;SDS011;3455;42.150;24.734;2023-02-24T10:01:27;30.07;;;17.83;;
6834;SDS011;3455;42.150;24.734;2023-02-24T10:04:01;31.87;;;17.77;;
6834;SDS011;3455;42.150;24.734;2023-02-24T10:06:38;25.30;;;16.80;;
6834;SDS011;3455;42.150;24.734;2023-02-24T10:09:08;28.27;;;17.33;;
6834;SDS011;3455;42.150;24.734;2023-02-24T10:11:45;26.85;;;17.42;;
6834;SDS011;3455;42.150;24.734;2023-02-24T10:14:28;30.52;;;17.77;;
6834;SDS011;3455;42.150;24.734;2023-02-24T10:17:06;21.20;;;16.13;;
6834;SDS011;3455;42.150;24.734;2023-02-24T10:19:48;27.13;;;16.85;;
6834;SDS011;3455;42.150;24.734;2023-02-24T10:22:22;23.85;;;16.35;;
6834;SDS011;3455;42.150;24.734;2023-02-24T10:24:56;27.42;;;15.65;;
6834;SDS011;3455;42.150;24.734;2023-02-24T10:27:46;22.00;;;15.27;;
6834;SDS011;3455;42.150;24.734;2023-02-24T10:30:25;27.23;;;15.45;;
6834;SDS011;3455;42.150;24.734;2023-02-24T10:36:06;26.20;;;14.88;;
6834;SDS011;3455;42.150;24.734;2023-02-24T10:38:35;19.42;;;14.93;;
6834;SDS011;3455;42.150;24.734;2023-02-24T10:41:07;21.48;;;14.82;;
6834;SDS011;3455;42.150;24.734;2023-02-24T10:43:34;21.50;;;15.20;;
6834;SDS011;3455;42.150;24.734;2023-02-24T10:46:17;16.25;;;14.55;;
6834;SDS011;3455;42.150;24.734;2023-02-24T10:48:51;18.45;;;14.98;;
6834;SDS011;3455;42.150;24.734;2023-02-24T10:51:24;24.27;;;16.30;;
6834;SDS011;3455;42.150;24.734;2023-02-24T10:54:02;22.05;;;14.95;;
6834;SDS011;3455;42.150;24.734;2023-02-24T10:56:46;17.27;;;15.43;;
6834;SDS011;3455;42.150;24.734;2023-02-24T10:59:39;22.60;;;15.90;;
6834;SDS011;3455;42.150;24.734;2023-02-24T11:02:46;19.63;;;14.97;;
6834;SDS011;3455;42.150;24.734;2023-02-24T11:05:35;20.93;;;14.10;;
6834;SDS011;3455;42.150;24.734;2023-02-24T11:08:11;21.73;;;13.53;;
6834;SDS011;3455;42.150;24.734;2023-02-24T11:11:00;20.63;;;13.80;;
6834;SDS011;3455;42.150;24.734;2023-02-24T11:13:46;20.90;;;13.03;;
6834;SDS011;3455;42.150;24.734;2023-02-24T11:16:39;20.50;;;14.97;;
6834;SDS011;3455;42.150;24.734;2023-02-24T11:19:28;20.70;;;14.57;;
6834;SDS011;3455;42.150;24.734;2023-02-24T11:21:57;26.93;;;15.53;;
6834;SDS011;3455;42.150;24.734;2023-02-24T11:24:25;27.53;;;14.47;;
6834;SDS011;3455;42.150;24.734;2023-02-24T11:26:54;26.90;;;15.33;;
6834;SDS011;3455;42.150;24.734;2023-02-24T11:29:25;20.40;;;14.47;;
6834;SDS011;3455;42.150;24.734;2023-02-24T11:32:13;23.23;;;14.20;;
6834;SDS011;3455;42.150;24.734;2023-02-24T11:34:51;25.95;;;16.27;;
6834;SDS011;3455;42.150;24.734;2023-02-24T11:37:31;21.80;;;12.80;;
6834;SDS011;3455;42.150;24.734;2023-02-24T11:40:04;21.97;;;14.73;;
6834;SDS011;3455;42.150;24.734;2023-02-24T11:42:38;21.50;;;13.73;;
6834;SDS011;3455;42.150;24.734;2023-02-24T11:45:24;24.77;;;14.77;;
6834;SDS011;3455;42.150;24.734;2023-02-24T11:47:56;20.90;;;14.80;;
6834;SDS011;3455;42.150;24.734;2023-02-24T11:50:29;23.20;;;16.00;;
6834;SDS011;3455;42.150;24.734;2023-02-24T11:53:09;25.73;;;15.70;;
6834;SDS011;3455;42.150;24.734;2023-02-24T11:55:46;26.37;;;15.63;;
6834;SDS011;3455;42.150;24.734;2023-02-24T11:58:18;22.17;;;15.33;;
6834;SDS011;3455;42.150;24.734;2023-02-24T12:00:51;28.60;;;15.03;;
6834;SDS011;3455;42.150;24.734;2023-02-24T12:03:24;26.03;;;16.37;;
6834;SDS011;3455;42.150;24.734;2023-02-24T12:06:01;28.10;;;16.60;;
6834;SDS011;3455;42.150;24.734;2023-02-24T12:08:40;21.03;;;14.60;;
6834;SDS011;3455;42.150;24.734;2023-02-24T12:11:11;21.27;;;14.20;;
6834;SDS011;3455;42.150;24.734;2023-02-24T12:13:43;24.20;;;15.10;;
6834;SDS011;3455;42.150;24.734;2023-02-24T12:16:16;21.40;;;15.17;;
6834;SDS011;3455;42.150;24.734;2023-02-24T12:18:49;25.23;;;15.03;;
6834;SDS011;3455;42.150;24.734;2023-02-24T12:21:21;25.57;;;15.33;;
6834;SDS011;3455;42.150;24.734;2023-02-24T12:23:56;21.87;;;15.67;;
6834;SDS011;3455;42.150;24.734;2023-02-24T12:26:24;28.37;;;16.80;;
6834;SDS011;3455;42.150;24.734;2023-02-24T12:29:06;28.30;;;16.13;;
6834;SDS011;3455;42.150;24.734;2023-02-24T12:31:48;20.27;;;15.13;;
6834;SDS011;3455;42.150;24.734;2023-02-24T12:34:22;23.17;;;15.00;;
6834;SDS011;3455;42.150;24.734;2023-02-24T12:37:05;19.27;;;15.13;;
6834;SDS011;3455;42.150;24.734;2023-02-24T12:39:50;21.80;;;16.13;;
6834;SDS011;3455;42.150;24.734;2023-02-24T12:42:25;21.53;;;15.97;;
6834;SDS011;3455;42.150;24.734;2023-02-24T12:45:00;21.63;;;14.87;;
6834;SDS011;3455;42.150;24.734;2023-02-24T12:47:37;23.55;;;17.20;;
6834;SDS011;3455;42.150;24.734;2023-02-24T12:50:18;20.38;;;15.48;;
6834;SDS011;3455;42.150;24.734;2023-02-24T12:52:57;21.70;;;15.40;;
6834;SDS011;3455;42.150;24.734;2023-02-24T12:55:34;18.65;;;13.48;;
6834;SDS011;3455;42.150;24.734;2023-02-24T12:58:07;19.45;;;14.85;;
6834;SDS011;3455;42.150;24.734;2023-02-24T13:00:49;20.35;;;14.77;;
6834;SDS011;3455;42.150;24.734;2023-02-24T13:03:26;19.67;;;14.70;;
6834;SDS011;3455;42.150;24.734;2023-02-24T13:06:01;17.75;;;15.65;;
6834;SDS011;3455;42.150;24.734;2023-02-24T13:08:39;16.98;;;15.20;;
6834;SDS011;3455;42.150;24.734;2023-02-24T13:11:18;18.17;;;15.82;;
6834;SDS011;3455;42.150;24.734;2023-02-24T13:13:55;18.95;;;15.27;;
6834;SDS011;3455;42.150;24.734;2023-02-24T13:16:28;18.67;;;16.55;;
6834;SDS011;3455;42.150;24.734;2023-02-24T13:19:03;18.02;;;16.20;;
6834;SDS011;3455;42.150;24.734;2023-02-24T13:21:31;20.23;;;16.33;;
6834;SDS011;3455;42.150;24.734;2023-02-24T13:23:59;19.67;;;17.42;;
6834;SDS011;3455;42.150;24.734;2023-02-24T13:26:29;21.98;;;18.08;;
6834;SDS011;3455;42.150;24.734;2023-02-24T13:28:58;19.42;;;17.42;;
6834;SDS011;3455;42.150;24.734;2023-02-24T13:31:26;18.48;;;16.45;;
6834;SDS011;3455;42.150;24.734;2023-02-24T13:33:54;18.17;;;16.17;;
6834;SDS011;3455;42.150;24.734;2023-02-24T13:36:22;18.85;;;15.85;;
6834;SDS011;3455;42.150;24.734;2023-02-24T13:38:50;23.05;;;17.73;;
6834;SDS011;3455;42.150;24.734;2023-02-24T13:41:35;18.05;;;15.38;;
6834;SDS011;3455;42.150;24.734;2023-02-24T13:44:22;21.67;;;15.98;;
6834;SDS011;3455;42.150;24.734;2023-02-24T13:50:03;21.92;;;17.15;;
6834;SDS011;3455;42.150;24.734;2023-02-24T13:52:45;20.77;;;16.13;;
6834;SDS011;3455;42.150;24.734;2023-02-24T13:55:24;20.80;;;16.35;;
6834;SDS011;3455;42.150;24.734;2023-02-24T13:58:17;20.40;;;16.08;;
6834;SDS011;3455;42.150;24.734;2023-02-24T14:01:01;18.35;;;16.23;;
6834;SDS011;3455;42.150;24.734;2023-02-24T14:03:32;17.83;;;15.88;;
6834;SDS011;3455;42.150;24.734;2023-02-24T14:06:00;22.23;;;17.85;;
6834;SDS011;3455;42.150;24.734;2023-02-24T14:08:31;19.05;;;16.90;;
6834;SDS011;3455;42.150;24.734;2023-02-24T14:11:05;21.53;;;17.07;;
6834;SDS011;3455;42.150;24.734;2023-02-24T14:13:36;21.43;;;17.23;;
6834;SDS011;3455;42.150;24.734;2023-02-24T14:16:05;19.97;;;16.17;;
6834;SDS011;3455;42.150;24.734;2023-02-24T14:18:33;19.87;;;16.10;;
6834;SDS011;3455;42.150;24.734;2023-02-24T14:21:00;17.43;;;15.53;;
6834;SDS011;3455;42.150;24.734;2023-02-24T14:23:28;23.10;;;15.37;;
6834;SDS011;3455;42.150;24.734;2023-02-24T14:25:57;18.30;;;16.00;;
6834;SDS011;3455;42.150;24.734;2023-02-24T14:28:26;20.93;;;16.43;;
6834;SDS011;3455;42.150;24.734;2023-02-24T14:30:57;23.37;;;15.13;;
6834;SDS011;3455;42.150;24.734;2023-02-24T14:33:27;19.87;;;16.10;;
6834;SDS011;3455;42.150;24.734;2023-02-24T14:35:56;26.10;;;15.90;;
6834;SDS011;3455;42.150;24.734;2023-02-24T14:38:30;17.73;;;14.37;;
6834;SDS011;3455;42.150;24.734;2023-02-24T14:41:00;22.30;;;15.83;;
6834;SDS011;3455;42.150;24.734;2023-02-24T14:43:29;22.13;;;16.00;;
6834;SDS011;3455;42.150;24.734;2023-02-24T14:45:58;25.37;;;17.03;;
6834;SDS011;3455;42.150;24.734;2023-02-24T14:48:30;21.60;;;17.20;;
6834;SDS011;3455;42.150;24.734;2023-02-24T14:50:58;23.10;;;16.93;;
6834;SDS011;3455;42.150;24.734;2023-02-24T14:53:28;20.47;;;16.10;;
6834;SDS011;3455;42.150;24.734;2023-02-24T14:55:58;25.63;;;16.27;;
6834;SDS011;3455;42.150;24.734;2023-02-24T14:58:28;22.80;;;16.50;;
6834;SDS011;3455;42.150;24.734;2023-02-24T15:01:01;23.77;;;16.17;;
6834;SDS011;3455;42.150;24.734;2023-02-24T15:03:32;21.10;;;15.63;;
6834;SDS011;3455;42.150;24.734;2023-02-24T15:06:03;23.40;;;16.80;;
6834;SDS011;3455;42.150;24.734;2023-02-24T15:08:33;24.03;;;16.47;;
6834;SDS011;3455;42.150;24.734;2023-02-24T15:11:03;21.17;;;15.63;;
6834;SDS011;3455;42.150;24.734;2023-02-24T15:13:38;19.97;;;16.63;;
6834;SDS011;3455;42.150;24.734;2023-02-24T15:16:11;25.50;;;18.23;;
6834;SDS011;3455;42.150;24.734;2023-02-24T15:18:42;22.43;;;17.03;;
6834;SDS011;3455;42.150;24.734;2023-02-24T15:21:17;27.30;;;17.80;;
6834;SDS011;3455;42.150;24.734;2023-02-24T15:23:46;23.60;;;16.47;;
6834;SDS011;3455;42.150;24.734;2023-02-24T15:26:24;23.70;;;16.60;;
6834;SDS011;3455;42.150;24.734;2023-02-24T15:28:56;26.13;;;17.77;;